sensor_id;sensor_type;location;lat;lon;timestamp;temperature;humidity
3713;DHT22;1872;51.406;6.856;2023-05-10T00:02:14;14.10;99.90
3713;DHT22;1872;51.406;6.856;2023-05-10T00:04:40;14.00;99.90
3713;DHT22;1872;51.406;6.856;2023-05-10T00:07:06;14.10;99.90
3713;DHT22;1872;51.406;6.856;2023-05-10T00:09:32;14.00;99.90
3713;DHT22;1872;51.406;6.856;2023-05-10T00:11:58;14.10;99.90
3713;DHT22;1872;51.406;6.856;2023-05-10T00:14:25;14.10;99.90
3713;DHT22;1872;51.406;6.856;2023-05-10T00:16:51;14.10;99.90
3713;DHT22;1872;51.406;6.856;2023-05-10T00:19:17;14.10;99.90
3713;DHT22;1872;51.406;6.856;2023-05-10T00:21:43;14.00;99.90
3713;DHT22;1872;51.406;6.856;2023-05-10T00:24:08;14.10;99.90
3713;DHT22;1872;51.406;6.856;2023-05-10T00:26:34;14.10;99.90
3713;DHT22;1872;51.406;6.856;2023-05-10T00:29:00;14.00;99.90
3713;DHT22;1872;51.406;6.856;2023-05-10T00:31:26;14.00;99.90
3713;DHT22;1872;51.406;6.856;2023-05-10T00:33:52;14.00;99.90
3713;DHT22;1872;51.406;6.856;2023-05-10T00:36:18;14.00;99.90
3713;DHT22;1872;51.406;6.856;2023-05-10T00:38:44;13.90;99.90
3713;DHT22;1872;51.406;6.856;2023-05-10T00:41:10;13.90;99.90
3713;DHT22;1872;51.406;6.856;2023-05-10T00:43:36;13.90;99.90
3713;DHT22;1872;51.406;6.856;2023-05-10T00:46:02;13.90;99.90
3713;DHT22;1872;51.406;6.856;2023-05-10T00:48:28;13.80;99.90
3713;DHT22;1872;51.406;6.856;2023-05-10T00:50:55;13.80;99.90
3713;DHT22;1872;51.406;6.856;2023-05-10T00:53:21;13.80;99.90
3713;DHT22;1872;51.406;6.856;2023-05-10T00:55:47;13.80;99.90
3713;DHT22;1872;51.406;6.856;2023-05-10T00:58:13;13.70;99.90
3713;DHT22;1872;51.406;6.856;2023-05-10T01:00:41;13.70;99.90
3713;DHT22;1872;51.406;6.856;2023-05-10T01:03:07;13.70;99.90
3713;DHT22;1872;51.406;6.856;2023-05-10T01:05:33;13.70;99.90
3713;DHT22;1872;51.406;6.856;2023-05-10T01:07:59;13.70;99.90
3713;DHT22;1872;51.406;6.856;2023-05-10T01:10:25;13.70;99.90
3713;DHT22;1872;51.406;6.856;2023-05-10T01:12:51;13.70;99.90
3713;DHT22;1872;51.406;6.856;2023-05-10T01:15:17;13.70;99.90
3713;DHT22;1872;51.406;6.856;2023-05-10T01:17:45;13.70;99.90
3713;DHT22;1872;51.406;6.856;2023-05-10T01:20:15;13.70;99.90
3713;DHT22;1872;51.406;6.856;2023-05-10T01:34:09;13.60;99.90
3713;DHT22;1872;51.406;6.856;2023-05-10T01:36:45;13.60;99.90
3713;DHT22;1872;51.406;6.856;2023-05-10T01:39:47;13.60;99.90
3713;DHT22;1872;51.406;6.856;2023-05-10T01:42:20;13.60;99.90
3713;DHT22;1872;51.406;6.856;2023-05-10T01:44:58;13.60;99.90
3713;DHT22;1872;51.406;6.856;2023-05-10T01:47:36;13.60;99.90
3713;DHT22;1872;51.406;6.856;2023-05-10T01:50:05;13.60;99.90
3713;DHT22;1872;51.406;6.856;2023-05-10T01:52:36;13.60;99.90
3713;DHT22;1872;51.406;6.856;2023-05-10T01:55:09;13.60;99.90
3713;DHT22;1872;51.406;6.856;2023-05-10T01:57:37;13.60;99.90
3713;DHT22;1872;51.406;6.856;2023-05-10T02:00:06;13.60;99.90
3713;DHT22;1872;51.406;6.856;2023-05-10T02:02:36;13.60;99.90
3713;DHT22;1872;51.406;6.856;2023-05-10T02:05:04;13.50;99.90
3713;DHT22;1872;51.406;6.856;2023-05-10T02:07:32;13.50;99.90
3713;DHT22;1872;51.406;6.856;2023-05-10T02:09:59;13.50;99.90
3713;DHT22;1872;51.406;6.856;2023-05-10T02:12:27;13.50;99.90
3713;DHT22;1872;51.406;6.856;2023-05-10T02:14:55;13.50;99.90
3713;DHT22;1872;51.406;6.856;2023-05-10T02:17:23;13.40;99.90
3713;DHT22;1872;51.406;6.856;2023-05-10T02:19:51;13.50;99.90
3713;DHT22;1872;51.406;6.856;2023-05-10T02:22:18;13.40;99.90
3713;DHT22;1872;51.406;6.856;2023-05-10T02:24:46;13.40;99.90
3713;DHT22;1872;51.406;6.856;2023-05-10T02:27:14;13.40;99.90
3713;DHT22;1872;51.406;6.856;2023-05-10T02:29:41;13.40;99.90
3713;DHT22;1872;51.406;6.856;2023-05-10T02:32:08;13.40;99.90
3713;DHT22;1872;51.406;6.856;2023-05-10T02:34:36;13.40;99.90
3713;DHT22;1872;51.406;6.856;2023-05-10T02:37:02;13.30;99.90
3713;DHT22;1872;51.406;6.856;2023-05-10T02:39:29;13.30;99.90
3713;DHT22;1872;51.406;6.856;2023-05-10T02:41:57;13.30;99.90
3713;DHT22;1872;51.406;6.856;2023-05-10T02:44:25;13.30;99.90
3713;DHT22;1872;51.406;6.856;2023-05-10T02:46:52;13.40;99.90
3713;DHT22;1872;51.406;6.856;2023-05-10T02:49:21;13.30;99.90
3713;DHT22;1872;51.406;6.856;2023-05-10T02:51:50;13.30;99.90
3713;DHT22;1872;51.406;6.856;2023-05-10T02:54:22;13.30;99.90
3713;DHT22;1872;51.406;6.856;2023-05-10T02:56:58;13.30;99.90
3713;DHT22;1872;51.406;6.856;2023-05-10T02:59:26;13.30;99.90
3713;DHT22;1872;51.406;6.856;2023-05-10T03:01:52;13.30;99.90
3713;DHT22;1872;51.406;6.856;2023-05-10T03:04:18;13.30;99.90
3713;DHT22;1872;51.406;6.856;2023-05-10T03:06:44;13.30;99.90
3713;DHT22;1872;51.406;6.856;2023-05-10T03:09:10;13.30;99.90
3713;DHT22;1872;51.406;6.856;2023-05-10T03:12:00;13.30;99.90
3713;DHT22;1872;51.406;6.856;2023-05-10T03:17:23;13.40;99.90
3713;DHT22;1872;51.406;6.856;2023-05-10T03:19:59;13.40;99.90
3713;DHT22;1872;51.406;6.856;2023-05-10T03:22:49;13.40;99.90
3713;DHT22;1872;51.406;6.856;2023-05-10T03:25:18;13.40;99.90
3713;DHT22;1872;51.406;6.856;2023-05-10T03:27:46;13.40;99.90
3713;DHT22;1872;51.406;6.856;2023-05-10T03:30:13;13.40;99.90
3713;DHT22;1872;51.406;6.856;2023-05-10T03:32:40;13.40;99.90
3713;DHT22;1872;51.406;6.856;2023-05-10T03:35:12;13.40;99.90
3713;DHT22;1872;51.406;6.856;2023-05-10T03:37:39;13.40;99.90
3713;DHT22;1872;51.406;6.856;2023-05-10T03:40:05;13.40;99.90
3713;DHT22;1872;51.406;6.856;2023-05-10T03:42:31;13.40;99.90
3713;DHT22;1872;51.406;6.856;2023-05-10T03:44:57;13.40;99.90
3713;DHT22;1872;51.406;6.856;2023-05-10T03:47:23;13.50;99.90
3713;DHT22;1872;51.406;6.856;2023-05-10T03:49:49;13.50;99.90
3713;DHT22;1872;51.406;6.856;2023-05-10T03:52:15;13.50;99.90
3713;DHT22;1872;51.406;6.856;2023-05-10T03:54:41;13.50;99.90
3713;DHT22;1872;51.406;6.856;2023-05-10T03:57:07;13.50;99.90
3713;DHT22;1872;51.406;6.856;2023-05-10T03:59:33;13.50;99.90
3713;DHT22;1872;51.406;6.856;2023-05-10T04:01:58;13.50;99.90
3713;DHT22;1872;51.406;6.856;2023-05-10T04:04:25;13.50;99.90
3713;DHT22;1872;51.406;6.856;2023-05-10T04:06:51;13.50;99.90
3713;DHT22;1872;51.406;6.856;2023-05-10T04:09:17;13.50;99.90
3713;DHT22;1872;51.406;6.856;2023-05-10T04:11:43;13.50;99.90
3713;DHT22;1872;51.406;6.856;2023-05-10T04:14:09;13.50;99.90
3713;DHT22;1872;51.406;6.856;2023-05-10T04:16:35;13.50;99.90
3713;DHT22;1872;51.406;6.856;2023-05-10T04:19:03;13.50;99.90
3713;DHT22;1872;51.406;6.856;2023-05-10T04:21:29;13.50;99.90
3713;DHT22;1872;51.406;6.856;2023-05-10T04:23:56;13.50;99.90
3713;DHT22;1872;51.406;6.856;2023-05-10T04:26:22;13.50;99.90
3713;DHT22;1872;51.406;6.856;2023-05-10T04:28:48;13.60;99.90
3713;DHT22;1872;51.406;6.856;2023-05-10T04:31:13;13.60;99.90
3713;DHT22;1872;51.406;6.856;2023-05-10T04:33:40;13.60;99.90
3713;DHT22;1872;51.406;6.856;2023-05-10T04:36:06;13.60;99.90
3713;DHT22;1872;51.406;6.856;2023-05-10T04:38:32;13.60;99.90
3713;DHT22;1872;51.406;6.856;2023-05-10T04:41:09;13.60;99.90
3713;DHT22;1872;51.406;6.856;2023-05-10T04:43:35;13.60;99.90
3713;DHT22;1872;51.406;6.856;2023-05-10T04:46:01;13.60;99.90
3713;DHT22;1872;51.406;6.856;2023-05-10T04:48:28;13.60;99.90
3713;DHT22;1872;51.406;6.856;2023-05-10T04:50:54;13.70;99.90
3713;DHT22;1872;51.406;6.856;2023-05-10T04:53:20;13.70;99.90
3713;DHT22;1872;51.406;6.856;2023-05-10T04:55:47;13.70;99.90
3713;DHT22;1872;51.406;6.856;2023-05-10T04:58:13;13.70;99.90
3713;DHT22;1872;51.406;6.856;2023-05-10T05:00:39;13.70;99.90
3713;DHT22;1872;51.406;6.856;2023-05-10T05:03:06;13.70;99.90
3713;DHT22;1872;51.406;6.856;2023-05-10T05:05:32;13.70;99.90
3713;DHT22;1872;51.406;6.856;2023-05-10T05:07:58;13.80;99.90
3713;DHT22;1872;51.406;6.856;2023-05-10T05:10:23;13.80;99.90
3713;DHT22;1872;51.406;6.856;2023-05-10T05:12:50;13.80;99.90
3713;DHT22;1872;51.406;6.856;2023-05-10T05:15:16;13.80;99.90
3713;DHT22;1872;51.406;6.856;2023-05-10T05:17:43;13.80;99.90
3713;DHT22;1872;51.406;6.856;2023-05-10T05:20:09;13.90;99.90
3713;DHT22;1872;51.406;6.856;2023-05-10T05:22:45;13.80;99.90
3713;DHT22;1872;51.406;6.856;2023-05-10T05:25:11;13.90;99.90
3713;DHT22;1872;51.406;6.856;2023-05-10T05:27:37;13.90;99.90
3713;DHT22;1872;51.406;6.856;2023-05-10T05:30:03;13.90;99.90
3713;DHT22;1872;51.406;6.856;2023-05-10T05:32:29;14.00;99.90
3713;DHT22;1872;51.406;6.856;2023-05-10T05:34:56;14.00;99.90
3713;DHT22;1872;51.406;6.856;2023-05-10T05:37:22;14.00;99.90
3713;DHT22;1872;51.406;6.856;2023-05-10T05:39:48;14.00;99.90
3713;DHT22;1872;51.406;6.856;2023-05-10T05:42:14;14.00;99.90
3713;DHT22;1872;51.406;6.856;2023-05-10T05:44:42;14.10;99.90
3713;DHT22;1872;51.406;6.856;2023-05-10T05:47:08;14.10;99.90
3713;DHT22;1872;51.406;6.856;2023-05-10T05:49:34;14.10;99.90
3713;DHT22;1872;51.406;6.856;2023-05-10T05:52:01;14.10;99.90
3713;DHT22;1872;51.406;6.856;2023-05-10T05:54:29;14.10;99.90
3713;DHT22;1872;51.406;6.856;2023-05-10T05:56:56;14.10;99.90
3713;DHT22;1872;51.406;6.856;2023-05-10T05:59:22;14.20;99.90
3713;DHT22;1872;51.406;6.856;2023-05-10T06:01:49;14.20;99.90
3713;DHT22;1872;51.406;6.856;2023-05-10T06:04:15;14.20;99.90
3713;DHT22;1872;51.406;6.856;2023-05-10T06:06:43;14.20;99.90
3713;DHT22;1872;51.406;6.856;2023-05-10T06:09:36;14.20;99.90
3713;DHT22;1872;51.406;6.856;2023-05-10T06:12:43;14.20;99.90
3713;DHT22;1872;51.406;6.856;2023-05-10T06:15:10;14.20;99.90
3713;DHT22;1872;51.406;6.856;2023-05-10T06:17:36;14.20;99.90
3713;DHT22;1872;51.406;6.856;2023-05-10T06:20:18;14.20;99.90
3713;DHT22;1872;51.406;6.856;2023-05-10T06:22:43;14.30;99.90
3713;DHT22;1872;51.406;6.856;2023-05-10T06:25:28;14.30;99.90
3713;DHT22;1872;51.406;6.856;2023-05-10T06:27:53;14.30;99.90
3713;DHT22;1872;51.406;6.856;2023-05-10T06:30:23;14.30;99.90
3713;DHT22;1872;51.406;6.856;2023-05-10T06:32:52;14.40;99.90
3713;DHT22;1872;51.406;6.856;2023-05-10T06:35:47;14.40;99.90
3713;DHT22;1872;51.406;6.856;2023-05-10T06:38:13;14.40;99.90
3713;DHT22;1872;51.406;6.856;2023-05-10T06:40:42;14.40;99.90
3713;DHT22;1872;51.406;6.856;2023-05-10T06:43:08;14.40;99.90
3713;DHT22;1872;51.406;6.856;2023-05-10T06:45:34;14.40;99.90
3713;DHT22;1872;51.406;6.856;2023-05-10T06:48:00;14.50;99.90
3713;DHT22;1872;51.406;6.856;2023-05-10T06:50:26;14.40;99.90
3713;DHT22;1872;51.406;6.856;2023-05-10T06:52:52;14.50;99.90
3713;DHT22;1872;51.406;6.856;2023-05-10T06:55:18;14.50;99.90
3713;DHT22;1872;51.406;6.856;2023-05-10T06:57:44;14.50;99.90
3713;DHT22;1872;51.406;6.856;2023-05-10T07:00:10;14.60;99.90
3713;DHT22;1872;51.406;6.856;2023-05-10T07:02:38;14.60;99.90
3713;DHT22;1872;51.406;6.856;2023-05-10T07:05:05;14.60;99.90
3713;DHT22;1872;51.406;6.856;2023-05-10T07:07:30;14.70;99.90
3713;DHT22;1872;51.406;6.856;2023-05-10T07:09:56;14.70;99.90
3713;DHT22;1872;51.406;6.856;2023-05-10T07:12:23;14.70;99.90
3713;DHT22;1872;51.406;6.856;2023-05-10T07:14:49;14.70;99.90
3713;DHT22;1872;51.406;6.856;2023-05-10T07:17:16;14.80;99.90
3713;DHT22;1872;51.406;6.856;2023-05-10T07:19:41;14.80;99.90
3713;DHT22;1872;51.406;6.856;2023-05-10T07:22:07;14.80;99.90
3713;DHT22;1872;51.406;6.856;2023-05-10T07:24:35;14.80;99.90
3713;DHT22;1872;51.406;6.856;2023-05-10T07:27:00;14.70;99.90
3713;DHT22;1872;51.406;6.856;2023-05-10T07:29:26;14.70;99.90
3713;DHT22;1872;51.406;6.856;2023-05-10T07:31:52;14.70;99.90
3713;DHT22;1872;51.406;6.856;2023-05-10T07:34:18;14.70;99.90
3713;DHT22;1872;51.406;6.856;2023-05-10T07:36:44;14.70;99.90
3713;DHT22;1872;51.406;6.856;2023-05-10T07:39:10;14.70;99.90
3713;DHT22;1872;51.406;6.856;2023-05-10T07:41:36;14.60;99.90
3713;DHT22;1872;51.406;6.856;2023-05-10T07:44:03;14.60;99.90
3713;DHT22;1872;51.406;6.856;2023-05-10T07:46:29;14.60;99.90
3713;DHT22;1872;51.406;6.856;2023-05-10T07:48:55;14.60;99.90
3713;DHT22;1872;51.406;6.856;2023-05-10T07:51:21;14.60;99.90
3713;DHT22;1872;51.406;6.856;2023-05-10T07:53:47;14.60;99.90
3713;DHT22;1872;51.406;6.856;2023-05-10T07:56:45;14.60;99.90
3713;DHT22;1872;51.406;6.856;2023-05-10T07:59:16;14.60;99.90
3713;DHT22;1872;51.406;6.856;2023-05-10T08:01:43;14.60;99.90
3713;DHT22;1872;51.406;6.856;2023-05-10T08:04:09;14.60;99.90
3713;DHT22;1872;51.406;6.856;2023-05-10T08:06:37;14.60;99.90
3713;DHT22;1872;51.406;6.856;2023-05-10T08:09:04;14.60;99.90
3713;DHT22;1872;51.406;6.856;2023-05-10T08:11:29;14.70;99.90
3713;DHT22;1872;51.406;6.856;2023-05-10T08:13:55;14.70;99.90
3713;DHT22;1872;51.406;6.856;2023-05-10T08:16:21;14.70;99.90
3713;DHT22;1872;51.406;6.856;2023-05-10T08:18:47;14.80;99.90
3713;DHT22;1872;51.406;6.856;2023-05-10T08:21:13;14.90;99.90
3713;DHT22;1872;51.406;6.856;2023-05-10T08:23:40;15.00;99.90
3713;DHT22;1872;51.406;6.856;2023-05-10T08:26:06;15.10;99.90
3713;DHT22;1872;51.406;6.856;2023-05-10T08:28:32;15.20;99.90
3713;DHT22;1872;51.406;6.856;2023-05-10T08:30:58;15.20;99.90
3713;DHT22;1872;51.406;6.856;2023-05-10T08:33:24;15.20;99.90
3713;DHT22;1872;51.406;6.856;2023-05-10T08:35:50;15.20;99.90
3713;DHT22;1872;51.406;6.856;2023-05-10T08:38:17;15.20;99.90
3713;DHT22;1872;51.406;6.856;2023-05-10T08:40:44;15.10;99.90
3713;DHT22;1872;51.406;6.856;2023-05-10T08:43:11;15.10;99.90
3713;DHT22;1872;51.406;6.856;2023-05-10T08:45:39;15.00;99.90
3713;DHT22;1872;51.406;6.856;2023-05-10T08:48:07;15.10;99.90
3713;DHT22;1872;51.406;6.856;2023-05-10T08:50:37;15.10;99.90
3713;DHT22;1872;51.406;6.856;2023-05-10T08:53:11;15.10;99.90
3713;DHT22;1872;51.406;6.856;2023-05-10T08:55:38;15.20;99.90
3713;DHT22;1872;51.406;6.856;2023-05-10T08:58:09;15.20;99.90
3713;DHT22;1872;51.406;6.856;2023-05-10T09:00:35;15.30;99.90
3713;DHT22;1872;51.406;6.856;2023-05-10T09:03:04;15.30;99.90
3713;DHT22;1872;51.406;6.856;2023-05-10T09:05:30;15.30;99.90
3713;DHT22;1872;51.406;6.856;2023-05-10T09:07:56;15.30;99.90
3713;DHT22;1872;51.406;6.856;2023-05-10T09:10:23;15.20;99.90
3713;DHT22;1872;51.406;6.856;2023-05-10T09:12:51;15.10;99.90
3713;DHT22;1872;51.406;6.856;2023-05-10T09:15:19;15.00;99.90
3713;DHT22;1872;51.406;6.856;2023-05-10T09:17:45;15.00;99.90
3713;DHT22;1872;51.406;6.856;2023-05-10T09:20:11;15.00;99.90
3713;DHT22;1872;51.406;6.856;2023-05-10T09:22:38;14.90;99.90
3713;DHT22;1872;51.406;6.856;2023-05-10T09:25:16;14.90;99.90
3713;DHT22;1872;51.406;6.856;2023-05-10T09:27:46;14.90;99.90
3713;DHT22;1872;51.406;6.856;2023-05-10T09:30:26;14.80;99.90
3713;DHT22;1872;51.406;6.856;2023-05-10T09:32:52;14.80;99.90
3713;DHT22;1872;51.406;6.856;2023-05-10T09:35:23;14.90;99.90
3713;DHT22;1872;51.406;6.856;2023-05-10T09:37:52;15.00;99.90
3713;DHT22;1872;51.406;6.856;2023-05-10T09:40:24;15.10;99.90
3713;DHT22;1872;51.406;6.856;2023-05-10T09:43:09;15.20;99.90
3713;DHT22;1872;51.406;6.856;2023-05-10T09:45:36;15.30;99.90
3713;DHT22;1872;51.406;6.856;2023-05-10T09:48:03;15.40;99.90
3713;DHT22;1872;51.406;6.856;2023-05-10T09:50:30;15.40;99.90
3713;DHT22;1872;51.406;6.856;2023-05-10T09:52:57;15.50;99.90
3713;DHT22;1872;51.406;6.856;2023-05-10T09:55:42;15.50;99.90
3713;DHT22;1872;51.406;6.856;2023-05-10T09:58:10;15.60;99.90
3713;DHT22;1872;51.406;6.856;2023-05-10T10:00:39;15.60;99.90
3713;DHT22;1872;51.406;6.856;2023-05-10T10:03:06;15.50;99.90
3713;DHT22;1872;51.406;6.856;2023-05-10T10:05:35;15.50;99.90
3713;DHT22;1872;51.406;6.856;2023-05-10T10:08:04;15.50;99.90
3713;DHT22;1872;51.406;6.856;2023-05-10T10:10:31;15.50;99.90
3713;DHT22;1872;51.406;6.856;2023-05-10T10:12:58;15.60;99.90
3713;DHT22;1872;51.406;6.856;2023-05-10T10:15:24;15.60;99.90
3713;DHT22;1872;51.406;6.856;2023-05-10T10:17:51;15.70;99.90
3713;DHT22;1872;51.406;6.856;2023-05-10T10:20:18;15.70;99.90
3713;DHT22;1872;51.406;6.856;2023-05-10T10:22:45;15.60;99.90
3713;DHT22;1872;51.406;6.856;2023-05-10T10:25:13;15.60;99.90
3713;DHT22;1872;51.406;6.856;2023-05-10T10:30:46;15.50;99.90
3713;DHT22;1872;51.406;6.856;2023-05-10T10:35:59;15.60;99.90
3713;DHT22;1872;51.406;6.856;2023-05-10T10:38:36;15.60;99.90
3713;DHT22;1872;51.406;6.856;2023-05-10T10:41:09;15.70;99.90
3713;DHT22;1872;51.406;6.856;2023-05-10T10:43:35;15.80;99.90
3713;DHT22;1872;51.406;6.856;2023-05-10T10:46:15;15.80;99.90
3713;DHT22;1872;51.406;6.856;2023-05-10T10:48:50;15.80;99.90
3713;DHT22;1872;51.406;6.856;2023-05-10T10:51:17;15.70;99.90
3713;DHT22;1872;51.406;6.856;2023-05-10T10:54:12;15.70;99.90
3713;DHT22;1872;51.406;6.856;2023-05-10T10:56:38;15.80;99.90
3713;DHT22;1872;51.406;6.856;2023-05-10T10:59:04;15.90;99.90
3713;DHT22;1872;51.406;6.856;2023-05-10T11:01:33;16.00;99.90
3713;DHT22;1872;51.406;6.856;2023-05-10T11:06:32;16.20;99.90
3713;DHT22;1872;51.406;6.856;2023-05-10T11:09:10;16.20;99.90
3713;DHT22;1872;51.406;6.856;2023-05-10T11:11:52;16.30;99.90
3713;DHT22;1872;51.406;6.856;2023-05-10T11:14:21;16.20;99.90
3713;DHT22;1872;51.406;6.856;2023-05-10T11:16:50;16.10;99.90
3713;DHT22;1872;51.406;6.856;2023-05-10T11:19:17;16.00;99.90
3713;DHT22;1872;51.406;6.856;2023-05-10T11:24:30;15.90;99.90
3713;DHT22;1872;51.406;6.856;2023-05-10T11:26:56;15.90;99.90
3713;DHT22;1872;51.406;6.856;2023-05-10T11:29:22;15.90;99.90
3713;DHT22;1872;51.406;6.856;2023-05-10T11:31:49;15.90;99.90
3713;DHT22;1872;51.406;6.856;2023-05-10T11:34:29;15.90;99.90
3713;DHT22;1872;51.406;6.856;2023-05-10T11:36:57;16.00;99.90
3713;DHT22;1872;51.406;6.856;2023-05-10T11:39:35;16.10;99.90
3713;DHT22;1872;51.406;6.856;2023-05-10T11:42:01;16.10;99.90
3713;DHT22;1872;51.406;6.856;2023-05-10T11:44:31;16.20;99.90
3713;DHT22;1872;51.406;6.856;2023-05-10T11:47:04;16.30;99.90
3713;DHT22;1872;51.406;6.856;2023-05-10T11:49:31;16.40;99.90
3713;DHT22;1872;51.406;6.856;2023-05-10T11:52:07;16.40;99.90
3713;DHT22;1872;51.406;6.856;2023-05-10T11:54:33;16.50;99.90
3713;DHT22;1872;51.406;6.856;2023-05-10T11:57:00;16.50;99.90
3713;DHT22;1872;51.406;6.856;2023-05-10T11:59:26;16.60;99.90
3713;DHT22;1872;51.406;6.856;2023-05-10T12:01:52;16.60;99.90
3713;DHT22;1872;51.406;6.856;2023-05-10T12:04:18;16.60;99.90
3713;DHT22;1872;51.406;6.856;2023-05-10T12:06:43;16.60;99.90
3713;DHT22;1872;51.406;6.856;2023-05-10T12:09:10;16.50;99.90
3713;DHT22;1872;51.406;6.856;2023-05-10T12:11:38;16.50;99.90
3713;DHT22;1872;51.406;6.856;2023-05-10T12:14:05;16.40;99.90
3713;DHT22;1872;51.406;6.856;2023-05-10T12:16:31;16.40;99.90
3713;DHT22;1872;51.406;6.856;2023-05-10T12:18:59;16.50;99.90
3713;DHT22;1872;51.406;6.856;2023-05-10T12:21:25;16.60;99.90
3713;DHT22;1872;51.406;6.856;2023-05-10T12:23:53;16.70;99.90
3713;DHT22;1872;51.406;6.856;2023-05-10T12:26:24;16.80;99.90
3713;DHT22;1872;51.406;6.856;2023-05-10T12:28:53;16.90;99.90
3713;DHT22;1872;51.406;6.856;2023-05-10T12:31:19;16.90;99.90
3713;DHT22;1872;51.406;6.856;2023-05-10T12:33:45;17.00;99.90
3713;DHT22;1872;51.406;6.856;2023-05-10T12:36:13;16.90;99.90
3713;DHT22;1872;51.406;6.856;2023-05-10T12:38:44;17.00;99.90
3713;DHT22;1872;51.406;6.856;2023-05-10T12:41:16;17.00;99.90
3713;DHT22;1872;51.406;6.856;2023-05-10T12:43:42;17.00;99.90
3713;DHT22;1872;51.406;6.856;2023-05-10T12:46:13;17.10;99.90
3713;DHT22;1872;51.406;6.856;2023-05-10T12:48:41;17.30;99.90
3713;DHT22;1872;51.406;6.856;2023-05-10T12:51:07;17.40;99.90
3713;DHT22;1872;51.406;6.856;2023-05-10T12:53:41;17.50;99.90
3713;DHT22;1872;51.406;6.856;2023-05-10T12:56:07;17.60;99.90
3713;DHT22;1872;51.406;6.856;2023-05-10T12:58:34;17.60;99.90
3713;DHT22;1872;51.406;6.856;2023-05-10T13:01:00;17.70;99.90
3713;DHT22;1872;51.406;6.856;2023-05-10T13:03:27;17.80;99.90
3713;DHT22;1872;51.406;6.856;2023-05-10T13:05:53;17.90;99.90
3713;DHT22;1872;51.406;6.856;2023-05-10T13:08:20;17.90;99.90
3713;DHT22;1872;51.406;6.856;2023-05-10T13:10:49;18.00;99.90
3713;DHT22;1872;51.406;6.856;2023-05-10T13:13:15;18.00;99.90
3713;DHT22;1872;51.406;6.856;2023-05-10T13:15:41;18.10;99.90
3713;DHT22;1872;51.406;6.856;2023-05-10T13:18:07;18.10;99.90
3713;DHT22;1872;51.406;6.856;2023-05-10T13:20:34;18.00;99.90
3713;DHT22;1872;51.406;6.856;2023-05-10T13:23:00;18.00;99.90
3713;DHT22;1872;51.406;6.856;2023-05-10T13:25:28;18.00;99.90
3713;DHT22;1872;51.406;6.856;2023-05-10T13:27:54;17.90;99.90
3713;DHT22;1872;51.406;6.856;2023-05-10T13:30:20;17.90;99.90
3713;DHT22;1872;51.406;6.856;2023-05-10T13:32:46;17.90;99.90
3713;DHT22;1872;51.406;6.856;2023-05-10T13:35:12;17.80;99.90
3713;DHT22;1872;51.406;6.856;2023-05-10T13:37:38;17.80;99.90
3713;DHT22;1872;51.406;6.856;2023-05-10T13:42:53;17.90;99.90
3713;DHT22;1872;51.406;6.856;2023-05-10T13:45:19;17.90;99.90
3713;DHT22;1872;51.406;6.856;2023-05-10T13:47:45;17.90;99.90
3713;DHT22;1872;51.406;6.856;2023-05-10T13:50:11;17.90;99.90
3713;DHT22;1872;51.406;6.856;2023-05-10T13:52:37;17.80;99.90
3713;DHT22;1872;51.406;6.856;2023-05-10T13:55:06;17.80;99.90
3713;DHT22;1872;51.406;6.856;2023-05-10T13:57:33;17.80;99.90
3713;DHT22;1872;51.406;6.856;2023-05-10T14:00:01;17.90;99.90
3713;DHT22;1872;51.406;6.856;2023-05-10T14:02:27;18.00;99.90
3713;DHT22;1872;51.406;6.856;2023-05-10T14:04:53;18.10;99.90
3713;DHT22;1872;51.406;6.856;2023-05-10T14:07:22;18.20;99.90
3713;DHT22;1872;51.406;6.856;2023-05-10T14:09:48;18.20;99.90
3713;DHT22;1872;51.406;6.856;2023-05-10T14:12:14;18.20;99.90
3713;DHT22;1872;51.406;6.856;2023-05-10T14:14:40;18.20;99.90
3713;DHT22;1872;51.406;6.856;2023-05-10T14:17:06;18.20;99.90
3713;DHT22;1872;51.406;6.856;2023-05-10T14:19:31;18.10;99.90
3713;DHT22;1872;51.406;6.856;2023-05-10T14:21:59;18.10;99.90
3713;DHT22;1872;51.406;6.856;2023-05-10T14:24:25;18.10;99.90
3713;DHT22;1872;51.406;6.856;2023-05-10T14:26:51;18.10;99.90
3713;DHT22;1872;51.406;6.856;2023-05-10T14:29:21;18.20;99.90
3713;DHT22;1872;51.406;6.856;2023-05-10T14:31:47;18.30;99.90
3713;DHT22;1872;51.406;6.856;2023-05-10T14:34:13;18.40;99.90
3713;DHT22;1872;51.406;6.856;2023-05-10T14:36:41;18.50;99.90
3713;DHT22;1872;51.406;6.856;2023-05-10T14:39:09;18.60;99.90
3713;DHT22;1872;51.406;6.856;2023-05-10T14:41:40;18.60;99.90
3713;DHT22;1872;51.406;6.856;2023-05-10T14:44:15;18.70;99.90
3713;DHT22;1872;51.406;6.856;2023-05-10T14:46:41;18.60;99.90
3713;DHT22;1872;51.406;6.856;2023-05-10T14:49:07;18.60;99.90
3713;DHT22;1872;51.406;6.856;2023-05-10T14:51:36;18.50;99.90
3713;DHT22;1872;51.406;6.856;2023-05-10T14:54:02;18.40;99.90
3713;DHT22;1872;51.406;6.856;2023-05-10T14:56:28;18.30;99.90
3713;DHT22;1872;51.406;6.856;2023-05-10T14:58:56;18.30;99.90
3713;DHT22;1872;51.406;6.856;2023-05-10T15:01:22;18.40;99.90
3713;DHT22;1872;51.406;6.856;2023-05-10T15:03:48;18.40;99.90
3713;DHT22;1872;51.406;6.856;2023-05-10T15:06:15;18.40;99.90
3713;DHT22;1872;51.406;6.856;2023-05-10T15:08:43;18.40;99.90
3713;DHT22;1872;51.406;6.856;2023-05-10T15:11:09;18.40;99.90
3713;DHT22;1872;51.406;6.856;2023-05-10T15:13:35;18.40;99.90
3713;DHT22;1872;51.406;6.856;2023-05-10T15:16:18;18.40;99.90
3713;DHT22;1872;51.406;6.856;2023-05-10T15:18:44;18.40;99.90
3713;DHT22;1872;51.406;6.856;2023-05-10T15:21:10;18.40;99.90
3713;DHT22;1872;51.406;6.856;2023-05-10T15:23:35;18.40;99.90
3713;DHT22;1872;51.406;6.856;2023-05-10T15:26:04;18.40;99.90
3713;DHT22;1872;51.406;6.856;2023-05-10T15:28:30;18.40;99.90
3713;DHT22;1872;51.406;6.856;2023-05-10T15:30:56;18.40;99.90
3713;DHT22;1872;51.406;6.856;2023-05-10T15:33:22;18.40;99.90
3713;DHT22;1872;51.406;6.856;2023-05-10T15:35:48;18.30;99.90
3713;DHT22;1872;51.406;6.856;2023-05-10T15:38:14;18.30;99.90
3713;DHT22;1872;51.406;6.856;2023-05-10T15:40:40;18.20;99.90
3713;DHT22;1872;51.406;6.856;2023-05-10T15:43:06;18.10;99.90
3713;DHT22;1872;51.406;6.856;2023-05-10T15:45:32;18.00;99.90
3713;DHT22;1872;51.406;6.856;2023-05-10T15:47:58;18.00;99.90
3713;DHT22;1872;51.406;6.856;2023-05-10T15:50:24;17.90;99.90
3713;DHT22;1872;51.406;6.856;2023-05-10T15:52:50;17.80;99.90
3713;DHT22;1872;51.406;6.856;2023-05-10T15:55:17;17.70;99.90
3713;DHT22;1872;51.406;6.856;2023-05-10T15:57:43;17.60;99.90
3713;DHT22;1872;51.406;6.856;2023-05-10T16:00:10;17.50;99.90
3713;DHT22;1872;51.406;6.856;2023-05-10T16:02:40;17.30;99.90
3713;DHT22;1872;51.406;6.856;2023-05-10T16:05:07;17.10;99.90
3713;DHT22;1872;51.406;6.856;2023-05-10T16:07:40;17.00;99.90
3713;DHT22;1872;51.406;6.856;2023-05-10T16:10:08;16.90;99.90
3713;DHT22;1872;51.406;6.856;2023-05-10T16:12:35;16.80;99.90
3713;DHT22;1872;51.406;6.856;2023-05-10T16:15:00;16.60;99.90
3713;DHT22;1872;51.406;6.856;2023-05-10T16:17:26;16.50;99.90
3713;DHT22;1872;51.406;6.856;2023-05-10T16:19:52;16.30;99.90
3713;DHT22;1872;51.406;6.856;2023-05-10T16:22:18;16.10;99.90
3713;DHT22;1872;51.406;6.856;2023-05-10T16:24:52;16.00;99.90
3713;DHT22;1872;51.406;6.856;2023-05-10T16:27:20;15.80;99.90
3713;DHT22;1872;51.406;6.856;2023-05-10T16:29:46;15.60;99.90
3713;DHT22;1872;51.406;6.856;2023-05-10T16:32:12;15.30;99.90
3713;DHT22;1872;51.406;6.856;2023-05-10T16:34:40;15.10;99.90
3713;DHT22;1872;51.406;6.856;2023-05-10T16:37:06;15.00;99.90